Zebulon, NC (27597)

4:20 AM EST on December 22, 2014 (GMT -0500)
Lizard Lick / Glory Rd NC | Change Station
CLOSE
Current Station
Personal Weather Station
Location: Wendell, NC
Elevation: 278 ft
Nearby Weather Stations

Elev 278 ft 35.86 °N, 78.37 °W | Updated 6 seconds ago

Rain
Rain
36.5 °F
Feels Like 36 °F
N
2.3
Wind Variable Wind from East
Gusts 2.3 mph

Today
High -- | Low -- °F
--% Chance of Precip.
Yesterday
High -- | Low -- °F
Precip. -- in
7:20 AM 5:03 PM
New Moon, 0% visible
Pressure 30.16 in
Visibility 5.0 miles
Clouds Overcast 2800 ft
Windchill 36 °F
Dew Point 36 °F
Humidity 96%
Rainfall 0.13 in
Snow Depth Not available.
UV 0 out of 12
Pollen .30 out of 12
Air Quality Not available.
Flu Activity Not available.
METAR KLHZ 220855Z AUTO 02008KT 5SM -RA OVC028 02/01 A3016 RMK AO2 P0002

More Conditions Fewer Conditions

Pressure 30.16 in
Visibility 5.0 miles
Clouds Overcast 2800 ft
Windchill 36 °F
Dew Point 36 °F
Humidity 96%
Rainfall 0.13 in
Snow Depth Not available.
UV 0 out of 12
Pollen .30 out of 12
Air Quality Not available.
Flu Activity Not available.
METAR KLHZ 220855Z AUTO 02008KT 5SM -RA OVC028 02/01 A3016 RMK AO2 P0002

More Conditions Fewer Conditions

10-Day Weather Forecast

Almanac

Astronomy

Dec. 22, 2014 Rise Set
Actual Time
Civil Twilight
Nautical Twilight
Astronomical Twilight
Moon
Length of Visible Light
Length of Day
Tomorrow will be .
, % of the Moon is Illuminated

Today's Extremes

State Highs State Lows

Community

WunderPhotos

Upload Photos

1,779,580 photos uploaded!

WunderBlogs® & News

Nearby

Air Quality

  Air Quality AQ Index Pollutant
Not available.

Snow Depth

Station Depth Elevation

Earthquake Activity

City Distance Mag. Time & Date
Minimum magnitude displayed is 2.5.

Coastal Water Temperatures

Place Temperature

Nearby Weather Stations